DIRECCIÓN GENERAL DE AERONÁUTICA CIVIL
DIRECCIÓN METEOROLÓGICA DE CHILE
INFORMACIÓN METAR Y TAF

FIR PUERTO MONTT

Estación: SCQP
METAR SCQP 032000Z VRB02KT 9999 FEW008 OVC140 13/11 Q1017=

TAF SCQP 031617Z 0318/0418 16003KT 9999 BKN010 TX17/0320Z TN09/0409Z BECMG 0402/0404 VRB02KT 3000 BR TEMPO 0406/0412 1500 BR BKN005 BECMG 0416/0418 9999 NSW SCT010=

Estación: SCVD
METAR SCVD 032000Z VRB02KT 5000 BR OVC002 12/12 Q1018=

TAF SCVD 031030Z 0312/0324 VRB02KT 0500 FG OVC003 TN10/0312Z TX17/0318Z TEMPO 0312/0315 3000 BR NSC BECMG 0316/0318 9999 NSW SCT030 BECMG 0319/0321 BKN015=

Estación: SCJO
METAR SCJO 032000Z 19001KT 9999 FEW025 BKN045 OVC100 17/14 Q1018=

TAF SCJO 031030Z 0312/0324 VRB02KT 0600 FG OVC004 TN08/0312Z TX16/0318Z BECMG 0315/0317 9999 NSW=

Estación: SCTE
METAR SCTE 032000Z 35006KT 9999 BKN045 16/11 Q1018 NOSIG=

TAF SCTE 031616Z 0318/0418 36005KT 9999 BKN050 TX17/0320Z TN06/0409Z TEMPO 0318/0322 SCT015 BECMG 0402/0404 VRB02KT 3000 BR BKN008 TEMPO 0406/0412 0800 BCFG BECMG 0416/0418 9999 NSW SCT015 BKN080=

Estación: SCPQ
METAR SCPQ 032000Z 35007KT 8000 -RA SCT004 BKN014 OVC016 13/12 Q1017=

TAF SCPQ 031030Z 0312/0324 VRB02KT 9999 SCT020 TN09/0312Z TX16/0318Z BECMG 0314/0316 34006KT BKN015 BECMG 0320/0322 VRB02KT=

Estación: SCON
METAR SCON 032000Z 08005KT 9999 OVC030 14/12 Q1017=

TAF SCON NIL=

Estación: SCTN
METAR SCTN 032000Z 33005KT 9999 FEW040 BKN070 OVC180 15/11 Q1017=

TAF SCTN 031030Z 0312/0324 VRB02KT 9999 BKN040 TN09/0312Z TX16/0318Z BECMG 0318/0320 BKN030=

Estación: SCFT
METAR SCFT 032000Z VRB01KT 9999 OVC040 11/07 Q1018=

TAF SCFT NIL=

Estación: SCAP
METAR SCAP 032000Z 00000KT 9999 BKN030 OVC035 11/07 Q1024=

TAF SCAP NIL=

Estación: SCMK
METAR SCMK 032000Z 08006KT 9999 OVC035 12/10 Q1017=

TAF SCMK 031030Z 0312/0324 03006KT 9999 BKN007 TN08/0312Z TX14/0318Z BECMG 0315/0317 SCT017=

Estación: SCAS
METAR SCAS 032000Z 000000KT CAVOK 13/07 Q1018=

TAF SCAS NIL=

Estación: SCCY
METAR SCCY 032000Z 19004KT 9999 FEW040 BKN200 16/05 Q1016=

TAF SCCY 031030Z 0312/0324 VRB02KT 9999 SCT020 TN01/0312Z TX12/0318Z=

Estación: SCBA
METAR SCBA 032000Z 29011KT CAVOK 13/04 Q1016=

TAF SCBA 031617Z 0318/0418 29003KT 9999 SCT040 TX10/0320Z TNM03/0409Z BECMG 0400/0402 10005KT PROB30 TEMPO 0406/0412 3000 BR BKN010=

Estación: SCCC
METAR SCCC 032000Z 35003KT CAVOK 13/05 Q1017=

TAF SCCC NIL=

Estación: SCHR
METAR SCHR 032000Z 31008KT CAVOK 14/03 Q1014=

TAF SCHR 031058Z 0312/0400 13005KT CAVOK TN01/0312Z TX10/0318Z TEMPO 0312/0316 00000KT BECMG 0320/0322 5000 BCFG SCT008=


Volver